Time;durP1;ratioP1;P1;durP2;ratioP2;P2;SDS_P1;SDS_P2;PMS_P1;PMS_P2;Temp;Humidity;BMP_temperature;BMP_pressure;BME280_temperature;BME280_humidity;BME280_pressure;Samples;Min_cycle;Max_cycle;Signal;HPM_P1;HPM_P2
2021/06/18 00:01:12;;;;;;;6.47;5.57;;;;;;;21.43;59.51;96026.69;4993500;28;20409;-75
2021/06/18 00:03:39;;;;;;;7.63;5.72;;;;;;;21.42;59.22;96027.88;4994118;28;20053;-75
2021/06/18 00:06:06;;;;;;;7.97;5.65;;;;;;;21.41;59.67;96023.53;4993980;28;20501;-75
2021/06/18 00:08:32;;;;;;;9.10;6.03;;;;;;;21.43;59.41;96029.44;4994264;28;20042;-74
2021/06/18 00:10:59;;;;;;;9.85;6.30;;;;;;;21.39;59.57;96023.13;4994240;28;20038;-74
2021/06/18 00:13:27;;;;;;;10.82;6.80;;;;;;;21.36;59.46;96029.47;4993583;28;20042;-73
2021/06/18 00:15:53;;;;;;;7.75;6.05;;;;;;;21.33;60.28;96025.50;4994131;28;20043;-74
2021/06/18 00:18:21;;;;;;;10.52;6.80;;;;;;;21.32;60.51;96028.66;4993428;28;20047;-74
2021/06/18 00:20:47;;;;;;;9.07;5.93;;;;;;;21.30;59.74;96026.28;4994224;28;20049;-74
2021/06/18 00:23:13;;;;;;;10.90;5.75;;;;;;;21.27;60.03;96021.50;4993518;28;20057;-73
2021/06/18 00:25:42;;;;;;;7.78;6.07;;;;;;;21.23;60.37;96019.91;4993875;28;20129;-74
2021/06/18 00:28:08;;;;;;;8.55;6.25;;;;;;;21.18;60.68;96018.34;4993255;28;20042;-73
2021/06/18 00:30:36;;;;;;;8.05;6.25;;;;;;;21.14;60.82;96016.75;4993909;28;20086;-74
2021/06/18 00:33:03;;;;;;;11.18;6.60;;;;;;;21.07;61.43;96015.56;4992759;28;20073;-75
2021/06/18 00:35:29;;;;;;;9.93;6.78;;;;;;;21.06;61.06;96021.50;4993908;28;20042;-74
2021/06/18 00:37:56;;;;;;;10.93;6.50;;;;;;;21.01;61.35;96019.91;4993684;28;20051;-74
2021/06/18 00:40:22;;;;;;;9.68;6.68;;;;;;;20.98;61.58;96020.69;4993142;28;20060;-73
2021/06/18 00:42:49;;;;;;;11.57;6.47;;;;;;;20.96;61.85;96023.06;4993310;28;20639;-74
2021/06/18 00:45:15;;;;;;;11.23;6.32;;;;;;;20.94;61.11;96019.91;4992983;28;20053;-74
2021/06/18 00:47:48;;;;;;;9.10;5.72;;;;;;;20.91;61.30;96025.44;4993480;28;20042;-74
2021/06/18 00:50:15;;;;;;;8.20;6.25;;;;;;;20.83;61.36;96019.09;4993320;28;20038;-74
2021/06/18 00:52:42;;;;;;;9.82;6.82;;;;;;;20.77;61.60;96020.66;4993384;28;20050;-74
2021/06/18 00:55:11;;;;;;;10.25;7.03;;;;;;;20.72;62.16;96023.81;4992838;28;20042;-75
2021/06/18 00:57:38;;;;;;;8.98;6.20;;;;;;;20.68;62.23;96028.56;4993378;28;20452;-76
2021/06/18 01:00:06;;;;;;;11.85;6.60;;;;;;;20.66;62.75;96025.38;4992639;28;20050;-76
2021/06/18 01:02:33;;;;;;;9.55;6.57;;;;;;;20.63;63.11;96026.19;4993387;28;20065;-76
2021/06/18 01:05:01;;;;;;;7.97;6.30;;;;;;;20.63;62.59;96020.63;4993132;28;20046;-74
2021/06/18 01:07:32;;;;;;;11.20;6.38;;;;;;;20.61;62.67;96017.47;4992807;28;20088;-75
2021/06/18 01:10:11;;;;;;;8.20;6.40;;;;;;;20.61;62.35;96006.41;4992920;28;20073;-76
2021/06/18 01:12:43;;;;;;;10.07;6.72;;;;;;;20.56;62.95;96004.78;4991912;28;20042;-76
2021/06/18 01:15:13;;;;;;;9.13;7.10;;;;;;;20.53;63.12;96006.38;4992492;28;20046;-74
2021/06/18 01:17:47;;;;;;;9.73;7.00;;;;;;;20.52;63.41;96012.31;4992996;28;20038;-74
2021/06/18 01:20:40;;;;;;;10.18;6.68;;;;;;;20.49;63.11;96011.09;4992363;28;20057;-74
2021/06/18 01:23:17;;;;;;;9.23;6.50;;;;;;;20.48;63.15;96008.75;4992287;28;20042;-74
2021/06/18 01:25:46;;;;;;;8.43;6.85;;;;;;;20.46;63.50;96011.88;4992721;28;20644;-74
2021/06/18 01:28:31;;;;;;;9.73;6.90;;;;;;;20.45;63.82;96015.78;4992036;28;20045;-74
2021/06/18 01:30:59;;;;;;;8.77;6.45;;;;;;;20.46;63.69;96008.28;4992588;28;20666;-74
2021/06/18 01:33:27;;;;;;;9.75;7.40;;;;;;;20.43;63.62;96007.13;4992277;28;20038;-74
2021/06/18 01:35:56;;;;;;;11.75;7.53;;;;;;;20.38;64.01;96015.78;4992452;28;20069;-77
2021/06/18 01:38:25;;;;;;;8.95;7.55;;;;;;;20.34;64.06;96001.16;4991992;28;20062;-74
2021/06/18 01:40:55;;;;;;;9.80;7.97;;;;;;;20.32;64.27;96009.84;4992506;28;20382;-74
2021/06/18 01:43:24;;;;;;;10.05;6.80;;;;;;;20.33;64.03;96008.66;4991422;28;20050;-73
2021/06/18 01:45:51;;;;;;;9.68;6.90;;;;;;;20.32;63.65;95992.47;4992552;28;20077;-74
2021/06/18 01:48:21;;;;;;;10.05;6.70;;;;;;;20.33;63.29;95996.81;4991909;28;20539;-74
2021/06/18 01:50:49;;;;;;;9.18;6.57;;;;;;;20.28;63.50;95995.22;4992501;28;20046;-74
2021/06/18 01:53:18;;;;;;;11.20;7.22;;;;;;;20.19;64.48;95996.75;4991813;28;20054;-74
2021/06/18 01:55:47;;;;;;;11.07;7.20;;;;;;;20.13;64.18;95999.09;4992464;28;20057;-74
2021/06/18 01:58:16;;;;;;;14.57;7.90;;;;;;;20.08;64.58;96000.25;4991520;28;20408;-74
2021/06/18 02:00:47;;;;;;;12.10;7.82;;;;;;;20.03;64.66;95997.88;4992244;28;20046;-74
2021/06/18 02:03:17;;;;;;;8.85;7.88;;;;;;;20.02;65.04;95990.75;4991566;28;20050;-74
2021/06/18 02:05:45;;;;;;;8.75;7.68;;;;;;;20.00;65.38;95993.13;4992118;28;20043;-76
2021/06/18 02:08:14;;;;;;;9.52;6.93;;;;;;;19.98;65.24;95997.44;4991349;28;20516;-74
2021/06/18 02:10:43;;;;;;;14.75;7.57;;;;;;;19.98;65.37;95998.22;4991760;28;20042;-75
2021/06/18 02:13:11;;;;;;;10.80;7.50;;;;;;;19.96;65.10;95995.06;4991386;28;20059;-75
2021/06/18 02:15:40;;;;;;;11.10;7.72;;;;;;;19.93;65.36;95989.53;4992180;28;20050;-76
2021/06/18 02:18:11;;;;;;;9.93;8.02;;;;;;;19.90;65.66;95988.34;4991493;28;20517;-73
2021/06/18 02:20:38;;;;;;;9.57;7.72;;;;;;;19.86;65.89;95995.03;4991975;28;20050;-74
2021/06/18 02:23:06;;;;;;;12.02;7.70;;;;;;;19.84;66.29;96003.72;4991148;28;20065;-75
2021/06/18 02:25:35;;;;;;;8.23;6.82;;;;;;;19.83;66.24;96002.09;4991983;28;20503;-76
2021/06/18 02:28:03;;;;;;;8.80;6.82;;;;;;;19.82;66.22;96006.06;4991796;28;20401;-76
2021/06/18 02:30:30;;;;;;;10.77;6.15;;;;;;;19.82;65.74;95997.75;4991475;28;20035;-76
2021/06/18 02:32:58;;;;;;;8.05;6.68;;;;;;;19.81;65.96;95996.19;4991360;28;20050;-76
2021/06/18 02:35:27;;;;;;;8.65;7.13;;;;;;;19.83;66.10;96002.09;4991213;28;20105;-76
2021/06/18 02:37:53;;;;;;;9.88;7.05;;;;;;;19.80;66.13;96009.22;4991442;28;20042;-76
2021/06/18 02:40:20;;;;;;;8.95;7.22;;;;;;;19.79;66.56;96007.63;4991230;28;20034;-76
2021/06/18 02:42:47;;;;;;;12.52;7.05;;;;;;;19.77;66.42;96009.19;4991366;28;20049;-76
2021/06/18 02:45:14;;;;;;;8.95;7.20;;;;;;;19.81;65.77;96010.00;4990922;28;20042;-76
2021/06/18 02:47:45;;;;;;;12.88;7.65;;;;;;;19.78;65.78;96022.63;4991440;28;20504;-76
2021/06/18 02:50:15;;;;;;;9.43;7.50;;;;;;;19.73;65.79;96019.41;4991246;28;20520;-76
2021/06/18 02:52:48;;;;;;;8.68;7.10;;;;;;;19.70;66.09;96014.66;4991133;28;20046;-76
2021/06/18 02:55:19;;;;;;;12.23;7.38;;;;;;;19.66;66.18;96020.16;4990660;28;20047;-76
2021/06/18 02:57:53;;;;;;;11.30;7.78;;;;;;;19.65;66.30;96020.56;4989849;28;20097;-76
2021/06/18 03:00:22;;;;;;;11.48;7.78;;;;;;;19.63;66.11;96026.47;4990884;28;20485;-75
2021/06/18 03:06:31;;;;;;;11.25;7.38;;;;;;;19.52;66.41;96026.38;4990972;28;20519;-76
2021/06/18 03:09:02;;;;;;;8.27;7.35;;;;;;;19.47;66.23;96023.16;4989145;28;20539;-76
2021/06/18 03:11:30;;;;;;;11.05;7.72;;;;;;;19.44;66.39;96024.72;4991130;28;20623;-76
2021/06/18 03:13:58;;;;;;;11.98;8.30;;;;;;;19.44;66.38;96024.72;4991389;28;20050;-75
2021/06/18 03:16:27;;;;;;;9.57;7.47;;;;;;;19.44;66.32;96029.44;4991037;28;20382;-76
2021/06/18 03:18:57;;;;;;;15.23;7.78;;;;;;;19.42;66.83;96027.09;4991345;28;20053;-77
2021/06/18 03:21:25;;;;;;;12.07;8.13;;;;;;;19.40;66.79;96036.91;4990685;28;20046;-77
2021/06/18 03:23:53;;;;;;;13.23;9.10;;;;;;;19.33;66.65;96040.41;4991354;28;20050;-76
2021/06/18 03:26:21;;;;;;;12.00;7.90;;;;;;;19.30;66.58;96038.41;4990896;28;20069;-76
2021/06/18 03:28:49;;;;;;;11.18;8.00;;;;;;;19.28;66.54;96040.78;4991290;28;20397;-76
2021/06/18 03:31:18;;;;;;;16.55;8.20;;;;;;;19.32;66.67;96044.34;4990743;28;20042;-76
2021/06/18 03:33:46;;;;;;;11.60;7.60;;;;;;;19.35;66.31;96043.56;4991110;28;20054;-76
2021/06/18 03:36:14;;;;;;;10.73;8.15;;;;;;;19.38;66.20;96048.34;4994197;28;20052;-76
2021/06/18 03:38:43;;;;;;;11.18;8.02;;;;;;;19.40;65.79;96050.72;4994122;28;20046;-76
2021/06/18 03:41:10;;;;;;;10.43;7.95;;;;;;;19.38;65.28;96053.88;4994325;28;20047;-76
2021/06/18 03:43:38;;;;;;;11.52;8.00;;;;;;;19.34;65.46;96057.78;4994673;28;20046;-76
2021/06/18 03:46:07;;;;;;;12.02;7.78;;;;;;;19.29;65.95;96051.41;4994287;28;20050;-77
2021/06/18 03:48:36;;;;;;;10.40;7.82;;;;;;;19.30;66.11;96052.22;4994498;28;20053;-76
2021/06/18 03:51:05;;;;;;;12.35;8.30;;;;;;;19.30;66.22;96052.22;4994242;28;20054;-74
2021/06/18 03:53:32;;;;;;;10.98;7.32;;;;;;;19.31;66.47;96059.31;4994677;28;20050;-76
2021/06/18 03:55:59;;;;;;;10.85;7.82;;;;;;;19.30;66.65;96064.03;4994582;28;20409;-76
2021/06/18 03:58:26;;;;;;;10.10;7.78;;;;;;;19.30;66.57;96061.28;4993685;28;20046;-76
2021/06/18 04:00:56;;;;;;;11.55;7.78;;;;;;;19.34;66.65;96057.78;4994351;28;20073;-76
2021/06/18 04:03:23;;;;;;;15.25;8.00;;;;;;;19.30;66.07;96057.72;4993770;28;20472;-76
2021/06/18 04:05:52;;;;;;;15.45;8.95;;;;;;;19.25;66.43;96055.31;4993869;28;20412;-76
2021/06/18 04:08:21;;;;;;;13.32;8.77;;;;;;;19.25;66.97;96063.59;4993143;28;20042;-76
2021/06/18 04:10:47;;;;;;;15.88;9.88;;;;;;;19.23;66.88;96063.22;4994235;28;20045;-76
2021/06/18 04:13:15;;;;;;;13.07;8.70;;;;;;;19.21;66.65;96060.84;4993528;28;20047;-76
2021/06/18 04:15:42;;;;;;;10.80;8.65;;;;;;;19.20;67.21;96058.44;4994036;28;20049;-76
2021/06/18 04:18:11;;;;;;;14.00;8.27;;;;;;;19.23;67.62;96068.72;4993587;28;20046;-76
2021/06/18 04:20:39;;;;;;;12.00;8.75;;;;;;;19.24;67.70;96064.78;4993727;28;20054;-76
2021/06/18 04:23:06;;;;;;;12.15;8.35;;;;;;;19.26;68.11;96062.44;4993587;28;20066;-75
2021/06/18 04:25:33;;;;;;;11.10;8.82;;;;;;;19.30;68.81;96057.72;4993942;28;20046;-75
2021/06/18 04:28:00;;;;;;;12.38;9.00;;;;;;;19.35;68.63;96054.63;4993459;28;20126;-76
2021/06/18 04:30:26;;;;;;;11.55;7.95;;;;;;;19.41;68.34;96057.81;4993126;28;20038;-74
2021/06/18 04:32:53;;;;;;;13.20;8.50;;;;;;;19.46;68.22;96055.50;4993735;28;20496;-73
2021/06/18 04:35:21;;;;;;;14.60;9.38;;;;;;;19.51;68.31;96062.63;4993234;28;20416;-74
2021/06/18 04:37:47;;;;;;;12.65;8.90;;;;;;;19.54;68.33;96062.66;4993214;28;20054;-74
2021/06/18 04:40:15;;;;;;;13.38;8.68;;;;;;;19.59;68.54;96053.28;4993306;28;20047;-73
2021/06/18 04:42:41;;;;;;;13.02;8.90;;;;;;;19.65;68.13;96050.94;4993416;28;20066;-74
2021/06/18 04:45:09;;;;;;;13.15;8.50;;;;;;;19.69;68.39;96051.75;4992965;28;20050;-73
2021/06/18 04:47:36;;;;;;;10.63;8.18;;;;;;;19.74;68.71;96048.63;4993653;28;20043;-74
2021/06/18 04:50:03;;;;;;;14.23;8.82;;;;;;;19.78;68.93;96064.06;4993076;28;20054;-73
2021/06/18 04:52:31;;;;;;;13.95;8.63;;;;;;;19.83;68.42;96054.59;4993592;28;20069;-74
2021/06/18 04:55:01;;;;;;;10.77;7.72;;;;;;;19.89;68.01;96063.31;4993232;28;20047;-74
2021/06/18 04:57:28;;;;;;;13.13;8.50;;;;;;;19.97;68.05;96065.75;4992997;28;20042;-74
2021/06/18 04:59:54;;;;;;;10.90;7.78;;;;;;;20.01;68.08;96063.81;4992881;28;20042;-74
2021/06/18 05:02:20;;;;;;;10.98;7.82;;;;;;;20.07;68.71;96067.78;4992632;28;20054;-75
2021/06/18 05:04:47;;;;;;;11.88;8.93;;;;;;;20.13;68.57;96064.66;4992986;28;20050;-74
2021/06/18 05:07:13;;;;;;;19.42;13.27;;;;;;;20.19;65.86;96068.63;4992386;28;20050;-74
2021/06/18 05:09:41;;;;;;;16.02;13.57;;;;;;;20.28;66.87;96071.84;4992406;28;20043;-74
2021/06/18 05:12:08;;;;;;;13.95;10.23;;;;;;;20.32;65.87;96067.91;4992647;28;20045;-73
2021/06/18 05:14:35;;;;;;;11.65;9.32;;;;;;;20.40;66.38;96067.94;4993038;28;20042;-74
2021/06/18 05:17:01;;;;;;;12.07;8.73;;;;;;;20.45;66.18;96071.13;4992924;28;20038;-74
2021/06/18 05:19:28;;;;;;;12.07;9.13;;;;;;;20.49;66.75;96071.97;4992692;28;20046;-73
2021/06/18 05:21:54;;;;;;;13.15;9.82;;;;;;;20.45;67.02;96073.88;4992718;28;20058;-74
2021/06/18 05:24:21;;;;;;;13.45;10.13;;;;;;;20.44;67.72;96080.59;4992171;28;20068;-74
2021/06/18 05:26:49;;;;;;;15.23;10.18;;;;;;;20.42;67.81;96082.97;4992800;28;20046;-74
2021/06/18 05:29:15;;;;;;;10.90;9.80;;;;;;;20.42;65.48;96082.19;4992151;28;20046;-74
2021/06/18 05:31:41;;;;;;;14.40;10.98;;;;;;;20.39;64.06;96080.97;4992694;28;20084;-74
2021/06/18 05:34:08;;;;;;;12.23;9.68;;;;;;;20.43;64.76;96084.56;4992179;28;20046;-73
2021/06/18 05:36:34;;;;;;;14.10;9.90;;;;;;;20.47;64.99;96085.41;4992615;28;20038;-74
2021/06/18 05:39:01;;;;;;;12.63;9.43;;;;;;;20.55;64.90;96086.19;4991941;28;20058;-74
2021/06/18 05:41:28;;;;;;;16.65;9.95;;;;;;;20.64;64.74;96088.63;4992306;28;20050;-74
2021/06/18 05:43:56;;;;;;;12.93;10.00;;;;;;;20.72;63.34;96090.22;4992589;28;20053;-74
2021/06/18 05:46:22;;;;;;;14.80;10.55;;;;;;;20.79;62.99;96095.78;4991851;28;20061;-74
2021/06/18 05:48:49;;;;;;;12.35;9.93;;;;;;;20.85;63.19;96091.44;4992249;28;20061;-73
2021/06/18 05:51:15;;;;;;;15.05;9.98;;;;;;;20.90;63.04;96085.53;4991715;28;20042;-73
2021/06/18 05:53:41;;;;;;;18.83;10.30;;;;;;;21.01;62.35;96091.88;4992364;28;20050;-73
2021/06/18 05:56:08;;;;;;;14.32;10.20;;;;;;;21.07;61.33;96087.53;4991854;28;20053;-73
2021/06/18 05:58:34;;;;;;;12.77;10.05;;;;;;;21.17;61.18;96099.81;4988893;28;20047;-74
2021/06/18 06:01:02;;;;;;;16.35;11.60;;;;;;;21.25;60.61;96101.44;4987661;28;20493;-74
2021/06/18 06:03:29;;;;;;;13.85;10.55;;;;;;;21.32;61.07;96103.44;4972325;28;20039;-74
2021/06/18 06:05:56;;;;;;;14.63;9.90;;;;;;;21.41;61.44;96103.84;4972701;28;20046;-73
2021/06/18 06:08:22;;;;;;;15.38;9.48;;;;;;;21.50;60.99;96107.00;4979154;28;20061;-74
2021/06/18 06:10:50;;;;;;;16.77;9.40;;;;;;;21.57;60.22;96115.34;4992035;28;20038;-74
2021/06/18 06:13:17;;;;;;;13.07;8.63;;;;;;;21.65;58.66;96112.56;4991373;28;20046;-73
2021/06/18 06:15:46;;;;;;;16.55;8.68;;;;;;;21.74;58.95;96110.19;4991673;28;20125;-74
2021/06/18 06:18:14;;;;;;;12.00;9.02;;;;;;;21.81;59.18;96107.41;4991337;28;20089;-77
2021/06/18 06:20:41;;;;;;;14.02;8.77;;;;;;;21.87;58.80;96105.81;4991881;28;20042;-76
2021/06/18 06:23:08;;;;;;;12.63;7.90;;;;;;;21.98;59.56;96108.56;4991301;28;20117;-76
2021/06/18 06:25:34;;;;;;;9.85;7.70;;;;;;;22.06;59.77;96116.47;4991776;28;20050;-76
2021/06/18 06:28:01;;;;;;;15.80;9.27;;;;;;;22.14;59.25;96107.00;4991802;28;20062;-76
2021/06/18 06:30:27;;;;;;;12.73;8.80;;;;;;;22.22;59.88;96110.53;4991602;28;20501;-77
2021/06/18 06:32:54;;;;;;;12.35;10.00;;;;;;;22.26;58.21;96114.09;4991565;28;20065;-78
2021/06/18 06:35:24;;;;;;;13.10;10.00;;;;;;;22.29;58.32;96109.72;4990875;28;20053;-78
2021/06/18 06:37:50;;;;;;;12.90;9.95;;;;;;;22.40;59.01;96113.28;4991438;28;20053;-79
2021/06/18 06:40:17;;;;;;;11.98;9.85;;;;;;;22.44;58.44;96119.59;4990143;28;20043;-78
2021/06/18 06:42:44;;;;;;;14.48;10.23;;;;;;;22.50;58.18;96118.00;4988023;28;20054;-80
2021/06/18 06:45:11;;;;;;;18.00;11.25;;;;;;;22.54;58.22;96118.78;4987708;28;20057;-79
2021/06/18 06:47:37;;;;;;;10.32;9.07;;;;;;;22.57;57.24;96117.19;4990667;28;20050;-79
2021/06/18 06:50:05;;;;;;;11.90;8.35;;;;;;;22.67;57.71;96111.59;4985965;28;20046;-79
2021/06/18 06:52:33;;;;;;;12.82;9.50;;;;;;;22.77;57.04;96109.19;4977405;28;20058;-82
2021/06/18 06:55:00;;;;;;;10.80;8.32;;;;;;;22.82;57.11;96109.56;4972683;28;20051;-79
2021/06/18 06:57:26;;;;;;;14.90;8.52;;;;;;;22.91;57.54;96111.91;4986374;28;20616;-80
2021/06/18 06:59:53;;;;;;;12.95;9.50;;;;;;;22.97;56.11;96110.31;4978656;28;20066;-80
2021/06/18 07:02:19;;;;;;;14.82;7.97;;;;;;;23.00;56.84;96111.47;4971953;28;20406;-79
2021/06/18 07:04:46;;;;;;;13.20;8.02;;;;;;;23.09;57.57;96109.06;4980594;28;20050;-79
2021/06/18 07:07:13;;;;;;;11.13;9.40;;;;;;;23.18;58.03;96104.63;4991045;28;20049;-79
2021/06/18 07:09:41;;;;;;;12.60;9.40;;;;;;;23.26;57.85;96112.91;4992405;28;20058;-79
2021/06/18 07:12:09;;;;;;;16.48;10.05;;;;;;;23.37;57.63;96102.50;4994910;28;20497;-76
2021/06/18 07:14:37;;;;;;;10.30;7.93;;;;;;;23.47;58.20;96109.97;4995244;28;20046;-79
2021/06/18 07:17:04;;;;;;;12.40;8.68;;;;;;;23.55;57.63;96100.41;4994573;28;20045;-79
2021/06/18 07:19:31;;;;;;;15.35;10.18;;;;;;;23.62;57.09;96103.13;4995457;28;20049;-79
2021/06/18 07:21:57;;;;;;;15.65;11.02;;;;;;;23.74;56.78;96101.84;4995000;28;20054;-80
2021/06/18 07:24:24;;;;;;;15.73;8.82;;;;;;;23.85;55.69;96098.97;4994351;28;20038;-79
2021/06/18 07:26:52;;;;;;;12.65;8.10;;;;;;;23.97;55.05;96101.28;4994154;28;20611;-80
2021/06/18 07:29:19;;;;;;;13.07;8.85;;;;;;;24.06;54.10;96103.56;4993849;28;20065;-81
2021/06/18 07:31:45;;;;;;;13.90;8.10;;;;;;;24.14;53.53;96100.31;4994485;28;20056;-78
2021/06/18 07:34:12;;;;;;;14.02;8.43;;;;;;;24.26;55.03;96100.97;4993470;28;20043;-80
2021/06/18 07:36:39;;;;;;;12.88;8.82;;;;;;;24.34;55.84;96096.94;4994685;28;20126;-80
2021/06/18 07:39:08;;;;;;;11.82;8.23;;;;;;;24.38;55.45;96090.16;4994688;28;20039;-81
2021/06/18 07:41:35;;;;;;;12.90;7.57;;;;;;;24.47;54.32;96090.44;4995490;28;20126;-78
2021/06/18 07:44:03;;;;;;;10.25;7.70;;;;;;;24.63;54.60;96087.06;4994777;28;20402;-79
2021/06/18 07:46:29;;;;;;;11.40;7.95;;;;;;;24.75;54.85;96088.53;4994465;28;20046;-79
2021/06/18 07:48:56;;;;;;;15.23;7.25;;;;;;;24.86;54.56;96082.81;4994696;28;20039;-80
2021/06/18 07:51:23;;;;;;;13.18;8.55;;;;;;;24.92;53.05;96090.28;4994749;28;20054;-79
2021/06/18 07:53:49;;;;;;;11.15;7.47;;;;;;;25.07;53.08;96093.69;4994784;28;20050;-79
2021/06/18 07:56:23;;;;;;;11.15;7.40;;;;;;;25.13;51.67;96100.38;4994075;28;20050;-79
2021/06/18 07:58:49;;;;;;;12.43;7.25;;;;;;;25.31;51.50;96102.91;4994369;28;20137;-79
2021/06/18 08:01:17;;;;;;;15.40;7.45;;;;;;;25.42;53.47;96097.16;4993979;28;20042;-79
2021/06/18 08:03:44;;;;;;;13.73;8.25;;;;;;;25.43;51.16;96096.75;4995490;28;20049;-79
2021/06/18 08:06:10;;;;;;;15.48;7.80;;;;;;;25.52;51.55;96087.84;4993901;28;20057;-77
2021/06/18 08:08:37;;;;;;;12.55;8.15;;;;;;;25.72;55.16;96094.28;4995741;28;20043;-81
2021/06/18 08:11:04;;;;;;;11.60;7.57;;;;;;;25.96;54.97;96091.56;4994448;28;20042;-77
2021/06/18 08:13:30;;;;;;;11.80;7.45;;;;;;;26.13;49.27;96093.22;4994355;28;20049;-79
2021/06/18 08:15:57;;;;;;;13.65;9.00;;;;;;;26.63;49.60;96094.31;4992366;28;20053;-78
2021/06/18 08:18:24;;;;;;;12.90;7.45;;;;;;;28.00;47.46;96090.88;4990582;28;20047;-79
2021/06/18 08:20:51;;;;;;;9.63;6.32;;;;;;;29.41;41.91;96092.13;4993435;28;20042;-79
2021/06/18 08:23:17;;;;;;;18.40;7.22;;;;;;;30.56;40.67;96101.19;4993360;28;20042;-78
2021/06/18 08:25:45;;;;;;;11.63;8.40;;;;;;;31.50;36.58;96093.69;4993982;28;20505;-78
2021/06/18 08:28:11;;;;;;;9.15;6.10;;;;;;;31.93;36.20;96099.19;4993602;28;20042;-78
2021/06/18 08:30:38;;;;;;;9.60;6.70;;;;;;;32.58;34.72;96080.34;4993840;28;20493;-79
2021/06/18 08:33:04;;;;;;;7.88;5.50;;;;;;;33.03;33.84;96086.44;4993400;28;20042;-79
2021/06/18 08:35:32;;;;;;;12.90;6.22;;;;;;;33.61;34.20;96088.16;4993602;28;20046;-81
2021/06/18 08:38:02;;;;;;;8.00;5.43;;;;;;;34.07;31.70;96090.78;4993151;28;20051;-80
2021/06/18 08:40:29;;;;;;;9.07;5.88;;;;;;;34.44;33.19;96094.94;4993471;28;20109;-79
2021/06/18 08:42:56;;;;;;;7.78;5.53;;;;;;;34.56;31.10;96089.50;4993148;28;20100;-78
2021/06/18 08:45:23;;;;;;;9.88;6.05;;;;;;;34.62;30.86;96093.25;4992770;28;20077;-80
2021/06/18 08:47:50;;;;;;;10.20;5.95;;;;;;;34.48;31.05;96095.53;4993207;28;20062;-79
2021/06/18 08:50:22;;;;;;;8.02;5.93;;;;;;;34.31;32.97;96090.78;4992656;28;20050;-83
2021/06/18 08:52:52;;;;;;;11.15;6.15;;;;;;;34.30;30.79;96083.53;4993198;28;20057;-81
2021/06/18 08:55:20;;;;;;;9.60;6.50;;;;;;;34.10;32.04;96087.78;4992970;28;20137;-81
2021/06/18 08:57:49;;;;;;;9.23;6.28;;;;;;;33.96;33.08;96092.09;4992916;28;20402;-85
2021/06/18 09:00:16;;;;;;;9.07;6.63;;;;;;;33.22;33.20;96093.59;4991713;28;20081;-79
2021/06/18 09:02:43;;;;;;;9.95;6.15;;;;;;;32.78;35.27;96085.50;5012404;28;20049;-79
2021/06/18 09:05:13;;;;;;;10.90;7.38;;;;;;;32.32;35.58;96084.72;5011921;28;20049;-79
2021/06/18 09:07:58;;;;;;;10.45;7.50;;;;;;;31.92;38.06;96079.94;5012453;28;20050;-79
2021/06/18 09:10:31;;;;;;;11.20;6.15;;;;;;;31.74;37.03;96083.47;5012264;28;20037;-81
2021/06/18 09:13:13;;;;;;;10.27;6.93;;;;;;;31.56;37.04;96081.38;5013072;28;20042;-82
2021/06/18 09:15:42;;;;;;;11.15;6.55;;;;;;;31.31;36.35;96084.38;5013968;28;20052;-79
2021/06/18 09:18:22;;;;;;;11.98;6.95;;;;;;;31.04;39.76;96085.00;5012622;28;20096;-80
2021/06/18 09:20:49;;;;;;;10.50;6.90;;;;;;;30.99;40.42;96082.78;5014124;28;20049;-81
2021/06/18 09:23:24;;;;;;;9.85;6.75;;;;;;;30.90;41.49;96087.06;5013499;28;20042;-83
2021/06/18 09:26:21;;;;;;;15.85;6.70;;;;;;;30.91;39.37;96087.88;5012717;28;20052;-80
2021/06/18 09:29:09;;;;;;;8.95;6.22;;;;;;;30.93;38.70;96086.16;5014154;28;20038;-79
2021/06/18 09:31:38;;;;;;;8.15;6.28;;;;;;;30.90;39.34;96080.66;5013396;28;20113;-80
2021/06/18 09:34:06;;;;;;;14.63;6.97;;;;;;;30.84;38.51;96085.31;5015163;28;20080;-82
2021/06/18 09:36:34;;;;;;;10.60;6.95;;;;;;;30.74;40.41;96086.50;5014545;28;20130;-81
2021/06/18 09:39:04;;;;;;;11.00;6.80;;;;;;;30.75;41.77;96080.44;5014703;28;20050;-83
2021/06/18 09:41:33;;;;;;;14.05;7.40;;;;;;;30.88;42.00;96078.31;5016313;28;20076;-82
2021/06/18 09:44:03;;;;;;;12.70;6.55;;;;;;;31.03;40.73;96077.81;5012633;28;20049;-82
2021/06/18 09:46:48;;;;;;;12.00;6.72;;;;;;;31.19;44.03;96081.16;5011405;28;20049;-81
2021/06/18 09:49:31;;;;;;;13.35;7.78;;;;;;;31.39;42.11;96082.88;5011780;28;20046;-81
2021/06/18 09:51:59;;;;;;;11.38;6.53;;;;;;;31.49;37.72;96086.50;5011489;28;20052;-82
2021/06/18 09:54:32;;;;;;;19.48;7.20;;;;;;;31.38;37.69;96093.34;5012412;28;20409;-81
2021/06/18 09:57:10;;;;;;;13.55;8.45;;;;;;;31.21;37.31;96083.50;5013008;28;20046;-82
2021/06/18 10:00:04;;;;;;;12.48;8.65;;;;;;;31.18;40.40;96081.63;4999437;28;20050;-81
2021/06/18 10:02:39;;;;;;;12.00;7.25;;;;;;;31.28;42.07;96077.66;4974698;28;20053;-81
2021/06/18 10:05:08;;;;;;;12.20;7.05;;;;;;;31.44;42.62;96085.06;5002701;28;20057;-82
2021/06/18 10:07:35;;;;;;;10.38;6.82;;;;;;;31.51;42.08;96075.56;5011846;28;20042;-82
2021/06/18 10:10:05;;;;;;;10.88;6.57;;;;;;;31.59;40.22;96082.47;5011784;28;20042;-82
2021/06/18 10:12:32;;;;;;;8.40;6.70;;;;;;;31.71;41.22;96087.19;4993818;28;20405;-81
2021/06/18 10:15:05;;;;;;;11.48;7.40;;;;;;;31.74;40.35;96074.22;5011231;28;20045;-82
2021/06/18 10:17:32;;;;;;;12.70;7.15;;;;;;;31.75;39.38;96076.59;5011084;28;20097;-82
2021/06/18 10:19:59;;;;;;;7.40;6.20;;;;;;;31.87;39.21;96077.75;4991766;28;20061;-81
2021/06/18 10:22:26;;;;;;;9.15;6.72;;;;;;;31.94;40.10;96075.41;4991341;28;20432;-82
2021/06/18 10:24:59;;;;;;;11.18;6.72;;;;;;;32.05;37.88;96077.75;4991898;28;20053;-82
2021/06/18 10:27:33;;;;;;;11.90;6.70;;;;;;;31.97;39.21;96081.38;4991258;28;20046;-82
2021/06/18 10:30:23;;;;;;;13.60;6.53;;;;;;;31.98;38.72;96080.88;5006203;28;20042;-82
2021/06/18 10:32:50;;;;;;;9.20;6.35;;;;;;;32.02;38.24;96083.56;5011334;28;20080;-82
2021/06/18 10:35:41;;;;;;;9.55;6.05;;;;;;;32.11;37.39;96086.41;5010724;28;20045;-81
2021/06/18 10:38:13;;;;;;;15.20;6.93;;;;;;;32.04;38.37;96081.06;4991401;28;20049;-81
2021/06/18 10:40:44;;;;;;;12.18;7.03;;;;;;;31.98;38.51;96082.91;4991767;28;20493;-83
2021/06/18 10:43:13;;;;;;;12.85;6.82;;;;;;;31.99;39.34;96085.25;4990971;28;20090;-81
2021/06/18 10:46:05;;;;;;;18.13;6.75;;;;;;;32.02;38.15;96080.75;4991581;28;20052;-82
2021/06/18 10:48:56;;;;;;;11.18;7.05;;;;;;;32.00;37.71;96080.41;4991340;28;20409;-82
2021/06/18 10:51:34;;;;;;;12.10;6.47;;;;;;;32.03;38.83;96085.13;4991248;28;20085;-82
2021/06/18 10:54:03;;;;;;;9.90;6.18;;;;;;;32.13;39.31;96086.72;4991433;28;20049;-82
2021/06/18 10:56:58;;;;;;;8.95;6.00;;;;;;;32.10;36.74;96082.00;4991227;28;20042;-82
2021/06/18 10:59:30;;;;;;;8.10;6.22;;;;;;;32.08;35.48;96081.69;5000812;28;20062;-81
2021/06/18 11:01:57;;;;;;;11.23;6.28;;;;;;;32.01;36.97;96082.00;5011439;28;20050;-82
2021/06/18 11:04:37;;;;;;;9.63;6.38;;;;;;;32.05;35.88;96071.34;4993186;28;20046;-81
2021/06/18 11:07:19;;;;;;;13.65;6.47;;;;;;;32.03;38.92;96074.63;5010752;28;20050;-81
2021/06/18 11:09:47;;;;;;;17.75;6.13;;;;;;;32.08;37.27;96076.06;5011393;28;20042;-82
2021/06/18 11:12:39;;;;;;;9.10;6.55;;;;;;;32.08;37.59;96070.44;5010362;28;20057;-82
2021/06/18 11:15:29;;;;;;;8.50;6.00;;;;;;;32.11;35.82;96058.25;5010478;28;20046;-82
2021/06/18 11:18:01;;;;;;;12.23;8.90;;;;;;;32.08;35.66;96061.97;5010850;28;20076;-82
2021/06/18 11:20:53;;;;;;;8.57;5.60;;;;;;;32.14;31.81;96058.06;5010620;28;20183;-83
2021/06/18 11:23:22;;;;;;;7.88;5.82;;;;;;;32.01;32.44;96060.25;4993591;28;20405;-81
2021/06/18 11:25:53;;;;;;;9.30;5.55;;;;;;;31.98;34.45;96060.41;5011882;28;20396;-82
2021/06/18 11:28:34;;;;;;;10.30;5.95;;;;;;;31.99;35.36;96056.31;5011160;28;20042;-82
2021/06/18 11:31:04;;;;;;;10.55;5.65;;;;;;;31.98;36.34;96060.41;5013489;28;20046;-82
2021/06/18 11:33:50;;;;;;;10.25;5.13;;;;;;;32.09;37.43;96060.72;5010833;28;20042;-82
2021/06/18 11:36:46;;;;;;;8.75;5.10;;;;;;;32.16;35.94;96057.63;4991058;28;20039;-82
2021/06/18 11:39:17;;;;;;;9.05;5.22;;;;;;;32.23;37.32;96051.66;5007505;28;20510;-81
2021/06/18 11:41:48;;;;;;;10.52;6.47;;;;;;;32.20;34.47;96056.19;5010511;28;20544;-83